sensor_id;sensor_type;location;lat;lon;timestamp;P1;durP1;ratioP1;P2;durP2;ratioP2
51800;SDS011;37855;53.204;6.568;2024-02-26T00:02:23;19.27;;;10.87;;
51800;SDS011;37855;53.204;6.568;2024-02-26T00:04:49;22.25;;;10.98;;
51800;SDS011;37855;53.204;6.568;2024-02-26T00:07:15;19.35;;;10.60;;
51800;SDS011;37855;53.204;6.568;2024-02-26T00:09:41;22.73;;;11.93;;
51800;SDS011;37855;53.204;6.568;2024-02-26T00:12:07;20.10;;;11.60;;
51800;SDS011;37855;53.204;6.568;2024-02-26T00:14:33;24.88;;;12.38;;
51800;SDS011;37855;53.204;6.568;2024-02-26T00:16:59;22.55;;;11.32;;
51800;SDS011;37855;53.204;6.568;2024-02-26T00:19:25;20.93;;;11.10;;
51800;SDS011;37855;53.204;6.568;2024-02-26T00:21:50;21.70;;;12.43;;
51800;SDS011;37855;53.204;6.568;2024-02-26T00:24:19;22.77;;;12.20;;
51800;SDS011;37855;53.204;6.568;2024-02-26T00:26:44;20.33;;;11.73;;
51800;SDS011;37855;53.204;6.568;2024-02-26T00:29:10;20.20;;;11.75;;
51800;SDS011;37855;53.204;6.568;2024-02-26T00:31:36;20.10;;;11.13;;
51800;SDS011;37855;53.204;6.568;2024-02-26T00:34:02;21.15;;;11.88;;
51800;SDS011;37855;53.204;6.568;2024-02-26T00:36:27;19.57;;;12.17;;
51800;SDS011;37855;53.204;6.568;2024-02-26T00:38:53;17.88;;;12.00;;
51800;SDS011;37855;53.204;6.568;2024-02-26T00:41:20;20.10;;;11.30;;
51800;SDS011;37855;53.204;6.568;2024-02-26T00:43:46;18.25;;;11.52;;
51800;SDS011;37855;53.204;6.568;2024-02-26T00:46:12;17.30;;;10.43;;
51800;SDS011;37855;53.204;6.568;2024-02-26T00:48:38;17.50;;;10.13;;
51800;SDS011;37855;53.204;6.568;2024-02-26T00:51:04;16.92;;;10.52;;
51800;SDS011;37855;53.204;6.568;2024-02-26T00:53:33;16.05;;;9.73;;
51800;SDS011;37855;53.204;6.568;2024-02-26T00:55:59;15.38;;;9.82;;
51800;SDS011;37855;53.204;6.568;2024-02-26T00:58:25;16.00;;;10.50;;
51800;SDS011;37855;53.204;6.568;2024-02-26T01:00:51;16.65;;;10.38;;
51800;SDS011;37855;53.204;6.568;2024-02-26T01:03:19;14.27;;;9.13;;
51800;SDS011;37855;53.204;6.568;2024-02-26T01:05:45;15.57;;;10.07;;
51800;SDS011;37855;53.204;6.568;2024-02-26T01:08:10;15.13;;;9.27;;
51800;SDS011;37855;53.204;6.568;2024-02-26T01:10:36;15.33;;;9.63;;
51800;SDS011;37855;53.204;6.568;2024-02-26T01:13:02;16.17;;;8.18;;
51800;SDS011;37855;53.204;6.568;2024-02-26T01:15:28;14.13;;;9.27;;
51800;SDS011;37855;53.204;6.568;2024-02-26T01:17:53;15.32;;;9.18;;
51800;SDS011;37855;53.204;6.568;2024-02-26T01:20:19;14.50;;;9.07;;
51800;SDS011;37855;53.204;6.568;2024-02-26T01:22:45;13.43;;;8.45;;
51800;SDS011;37855;53.204;6.568;2024-02-26T01:25:10;12.67;;;8.27;;
51800;SDS011;37855;53.204;6.568;2024-02-26T01:27:37;14.88;;;9.75;;
51800;SDS011;37855;53.204;6.568;2024-02-26T01:30:03;14.75;;;8.68;;
51800;SDS011;37855;53.204;6.568;2024-02-26T01:32:29;13.83;;;8.37;;
51800;SDS011;37855;53.204;6.568;2024-02-26T01:34:55;14.13;;;8.32;;
51800;SDS011;37855;53.204;6.568;2024-02-26T01:37:21;11.13;;;6.80;;
51800;SDS011;37855;53.204;6.568;2024-02-26T01:39:50;12.63;;;8.23;;
51800;SDS011;37855;53.204;6.568;2024-02-26T01:42:17;12.90;;;7.50;;
51800;SDS011;37855;53.204;6.568;2024-02-26T01:44:42;10.17;;;6.87;;
51800;SDS011;37855;53.204;6.568;2024-02-26T01:47:09;12.73;;;8.10;;
51800;SDS011;37855;53.204;6.568;2024-02-26T01:49:36;11.50;;;6.75;;
51800;SDS011;37855;53.204;6.568;2024-02-26T01:52:04;11.18;;;6.95;;
51800;SDS011;37855;53.204;6.568;2024-02-26T01:54:31;11.50;;;6.80;;
51800;SDS011;37855;53.204;6.568;2024-02-26T01:57:00;10.77;;;6.07;;
51800;SDS011;37855;53.204;6.568;2024-02-26T01:59:28;10.88;;;7.25;;
51800;SDS011;37855;53.204;6.568;2024-02-26T02:01:54;13.45;;;7.65;;
51800;SDS011;37855;53.204;6.568;2024-02-26T02:04:25;10.95;;;6.95;;
51800;SDS011;37855;53.204;6.568;2024-02-26T02:06:51;13.20;;;7.57;;
51800;SDS011;37855;53.204;6.568;2024-02-26T02:09:20;11.98;;;6.45;;
51800;SDS011;37855;53.204;6.568;2024-02-26T02:11:48;11.57;;;7.25;;
51800;SDS011;37855;53.204;6.568;2024-02-26T02:14:17;9.70;;;5.80;;
51800;SDS011;37855;53.204;6.568;2024-02-26T02:16:42;11.35;;;6.72;;
51800;SDS011;37855;53.204;6.568;2024-02-26T02:19:08;12.50;;;7.27;;
51800;SDS011;37855;53.204;6.568;2024-02-26T02:21:33;10.90;;;7.03;;
51800;SDS011;37855;53.204;6.568;2024-02-26T02:23:59;10.17;;;6.33;;
51800;SDS011;37855;53.204;6.568;2024-02-26T02:26:24;10.13;;;5.77;;
51800;SDS011;37855;53.204;6.568;2024-02-26T02:28:50;8.77;;;5.45;;
51800;SDS011;37855;53.204;6.568;2024-02-26T02:31:16;10.17;;;6.40;;
51800;SDS011;37855;53.204;6.568;2024-02-26T02:33:44;8.52;;;5.28;;
51800;SDS011;37855;53.204;6.568;2024-02-26T02:36:10;10.07;;;6.05;;
51800;SDS011;37855;53.204;6.568;2024-02-26T02:38:37;9.98;;;6.03;;
51800;SDS011;37855;53.204;6.568;2024-02-26T02:41:02;10.67;;;6.17;;
51800;SDS011;37855;53.204;6.568;2024-02-26T02:43:28;10.90;;;6.13;;
51800;SDS011;37855;53.204;6.568;2024-02-26T02:45:54;9.87;;;6.17;;
51800;SDS011;37855;53.204;6.568;2024-02-26T02:48:19;8.07;;;5.32;;
51800;SDS011;37855;53.204;6.568;2024-02-26T02:50:48;8.88;;;5.38;;
51800;SDS011;37855;53.204;6.568;2024-02-26T02:53:15;10.37;;;5.50;;
51800;SDS011;37855;53.204;6.568;2024-02-26T02:55:41;9.02;;;5.50;;
51800;SDS011;37855;53.204;6.568;2024-02-26T02:58:07;8.13;;;4.83;;
51800;SDS011;37855;53.204;6.568;2024-02-26T03:00:32;9.35;;;5.68;;
51800;SDS011;37855;53.204;6.568;2024-02-26T03:02:58;8.13;;;5.17;;
51800;SDS011;37855;53.204;6.568;2024-02-26T03:05:23;9.90;;;5.67;;
51800;SDS011;37855;53.204;6.568;2024-02-26T03:07:50;8.68;;;5.38;;
51800;SDS011;37855;53.204;6.568;2024-02-26T03:10:17;10.05;;;4.38;;
51800;SDS011;37855;53.204;6.568;2024-02-26T03:12:43;7.70;;;4.40;;
51800;SDS011;37855;53.204;6.568;2024-02-26T03:15:09;8.93;;;5.00;;
51800;SDS011;37855;53.204;6.568;2024-02-26T03:17:36;8.10;;;4.32;;
51800;SDS011;37855;53.204;6.568;2024-02-26T03:20:03;9.65;;;4.65;;
51800;SDS011;37855;53.204;6.568;2024-02-26T03:22:30;8.13;;;4.63;;
51800;SDS011;37855;53.204;6.568;2024-02-26T03:24:56;10.23;;;5.20;;
51800;SDS011;37855;53.204;6.568;2024-02-26T03:27:22;8.68;;;5.05;;
51800;SDS011;37855;53.204;6.568;2024-02-26T03:29:48;10.32;;;4.80;;
51800;SDS011;37855;53.204;6.568;2024-02-26T03:32:14;7.38;;;4.68;;
51800;SDS011;37855;53.204;6.568;2024-02-26T03:34:39;7.60;;;4.67;;
51800;SDS011;37855;53.204;6.568;2024-02-26T03:37:05;10.10;;;5.50;;
51800;SDS011;37855;53.204;6.568;2024-02-26T03:39:32;8.63;;;4.93;;
51800;SDS011;37855;53.204;6.568;2024-02-26T03:41:58;9.68;;;4.88;;
51800;SDS011;37855;53.204;6.568;2024-02-26T03:44:23;9.40;;;5.10;;
51800;SDS011;37855;53.204;6.568;2024-02-26T03:46:50;7.70;;;5.35;;
51800;SDS011;37855;53.204;6.568;2024-02-26T03:49:15;10.50;;;4.80;;
51800;SDS011;37855;53.204;6.568;2024-02-26T03:51:41;6.95;;;3.92;;
51800;SDS011;37855;53.204;6.568;2024-02-26T03:54:07;7.00;;;4.13;;
51800;SDS011;37855;53.204;6.568;2024-02-26T03:56:35;7.95;;;5.05;;
51800;SDS011;37855;53.204;6.568;2024-02-26T03:59:01;7.97;;;4.32;;
51800;SDS011;37855;53.204;6.568;2024-02-26T04:01:27;7.17;;;4.37;;
51800;SDS011;37855;53.204;6.568;2024-02-26T04:03:56;9.13;;;4.75;;
51800;SDS011;37855;53.204;6.568;2024-02-26T04:06:22;7.00;;;4.30;;
51800;SDS011;37855;53.204;6.568;2024-02-26T04:08:47;10.65;;;4.72;;
51800;SDS011;37855;53.204;6.568;2024-02-26T04:11:13;6.85;;;4.13;;
51800;SDS011;37855;53.204;6.568;2024-02-26T04:13:42;9.10;;;4.60;;
51800;SDS011;37855;53.204;6.568;2024-02-26T04:16:14;7.27;;;3.80;;
51800;SDS011;37855;53.204;6.568;2024-02-26T04:18:41;7.57;;;4.78;;
51800;SDS011;37855;53.204;6.568;2024-02-26T04:21:07;8.82;;;4.22;;
51800;SDS011;37855;53.204;6.568;2024-02-26T04:23:32;8.80;;;4.10;;
51800;SDS011;37855;53.204;6.568;2024-02-26T04:25:58;7.88;;;4.03;;
51800;SDS011;37855;53.204;6.568;2024-02-26T04:28:24;7.10;;;3.83;;
51800;SDS011;37855;53.204;6.568;2024-02-26T04:30:54;10.27;;;4.05;;
51800;SDS011;37855;53.204;6.568;2024-02-26T04:33:21;7.88;;;4.10;;
51800;SDS011;37855;53.204;6.568;2024-02-26T04:35:47;6.68;;;4.32;;
51800;SDS011;37855;53.204;6.568;2024-02-26T04:38:13;7.50;;;3.87;;
51800;SDS011;37855;53.204;6.568;2024-02-26T04:40:38;7.00;;;3.27;;
51800;SDS011;37855;53.204;6.568;2024-02-26T04:43:04;6.95;;;3.80;;
51800;SDS011;37855;53.204;6.568;2024-02-26T04:45:29;7.10;;;3.50;;
51800;SDS011;37855;53.204;6.568;2024-02-26T04:47:55;6.78;;;3.88;;
51800;SDS011;37855;53.204;6.568;2024-02-26T04:50:20;9.03;;;3.53;;
51800;SDS011;37855;53.204;6.568;2024-02-26T04:52:46;7.07;;;3.93;;
51800;SDS011;37855;53.204;6.568;2024-02-26T04:55:12;6.80;;;3.50;;
51800;SDS011;37855;53.204;6.568;2024-02-26T04:57:37;7.20;;;3.23;;
51800;SDS011;37855;53.204;6.568;2024-02-26T05:00:04;8.02;;;4.40;;
51800;SDS011;37855;53.204;6.568;2024-02-26T05:02:30;5.93;;;2.97;;
51800;SDS011;37855;53.204;6.568;2024-02-26T05:04:59;7.38;;;3.70;;
51800;SDS011;37855;53.204;6.568;2024-02-26T05:07:25;5.25;;;3.05;;
51800;SDS011;37855;53.204;6.568;2024-02-26T05:09:50;7.97;;;3.27;;
51800;SDS011;37855;53.204;6.568;2024-02-26T05:12:16;6.80;;;4.15;;
51800;SDS011;37855;53.204;6.568;2024-02-26T05:14:41;6.37;;;3.90;;
51800;SDS011;37855;53.204;6.568;2024-02-26T05:17:07;8.80;;;3.95;;
51800;SDS011;37855;53.204;6.568;2024-02-26T05:19:33;6.05;;;3.28;;
51800;SDS011;37855;53.204;6.568;2024-02-26T05:21:59;5.17;;;3.13;;
51800;SDS011;37855;53.204;6.568;2024-02-26T05:24:24;5.93;;;3.37;;
51800;SDS011;37855;53.204;6.568;2024-02-26T05:26:50;5.60;;;3.40;;
51800;SDS011;37855;53.204;6.568;2024-02-26T05:29:16;6.82;;;3.47;;
51800;SDS011;37855;53.204;6.568;2024-02-26T05:31:43;7.97;;;3.77;;
51800;SDS011;37855;53.204;6.568;2024-02-26T05:34:09;7.57;;;3.53;;
51800;SDS011;37855;53.204;6.568;2024-02-26T05:36:34;4.93;;;3.10;;
51800;SDS011;37855;53.204;6.568;2024-02-26T05:39:00;6.90;;;3.47;;
51800;SDS011;37855;53.204;6.568;2024-02-26T05:41:26;4.63;;;2.60;;
51800;SDS011;37855;53.204;6.568;2024-02-26T05:43:52;4.93;;;3.00;;
51800;SDS011;37855;53.204;6.568;2024-02-26T05:46:19;6.07;;;2.83;;
51800;SDS011;37855;53.204;6.568;2024-02-26T05:48:46;6.53;;;3.65;;
51800;SDS011;37855;53.204;6.568;2024-02-26T05:51:14;5.87;;;2.80;;
51800;SDS011;37855;53.204;6.568;2024-02-26T05:53:43;4.60;;;2.83;;
51800;SDS011;37855;53.204;6.568;2024-02-26T05:56:08;7.68;;;3.05;;
51800;SDS011;37855;53.204;6.568;2024-02-26T05:58:34;5.17;;;3.10;;
51800;SDS011;37855;53.204;6.568;2024-02-26T06:01:00;7.37;;;3.47;;
51800;SDS011;37855;53.204;6.568;2024-02-26T06:03:26;4.90;;;2.90;;
51800;SDS011;37855;53.204;6.568;2024-02-26T06:05:52;5.88;;;3.08;;
51800;SDS011;37855;53.204;6.568;2024-02-26T06:08:18;4.80;;;2.70;;
51800;SDS011;37855;53.204;6.568;2024-02-26T06:10:43;5.03;;;2.80;;
51800;SDS011;37855;53.204;6.568;2024-02-26T06:13:09;8.05;;;3.10;;
51800;SDS011;37855;53.204;6.568;2024-02-26T06:15:35;6.10;;;2.77;;
51800;SDS011;37855;53.204;6.568;2024-02-26T06:18:00;5.73;;;2.90;;
51800;SDS011;37855;53.204;6.568;2024-02-26T06:20:26;5.97;;;3.30;;
51800;SDS011;37855;53.204;6.568;2024-02-26T06:22:51;5.70;;;3.30;;
51800;SDS011;37855;53.204;6.568;2024-02-26T06:25:17;4.80;;;3.10;;
51800;SDS011;37855;53.204;6.568;2024-02-26T06:27:43;5.17;;;3.30;;
51800;SDS011;37855;53.204;6.568;2024-02-26T06:30:08;4.37;;;2.87;;
51800;SDS011;37855;53.204;6.568;2024-02-26T06:32:36;6.35;;;3.17;;
51800;SDS011;37855;53.204;6.568;2024-02-26T06:35:02;5.35;;;3.15;;
51800;SDS011;37855;53.204;6.568;2024-02-26T06:37:32;4.68;;;2.95;;
51800;SDS011;37855;53.204;6.568;2024-02-26T06:39:58;6.00;;;2.97;;
51800;SDS011;37855;53.204;6.568;2024-02-26T06:42:25;5.27;;;2.90;;
51800;SDS011;37855;53.204;6.568;2024-02-26T06:44:50;5.70;;;3.20;;
51800;SDS011;37855;53.204;6.568;2024-02-26T06:47:16;6.67;;;3.10;;
51800;SDS011;37855;53.204;6.568;2024-02-26T06:49:41;6.00;;;3.28;;
51800;SDS011;37855;53.204;6.568;2024-02-26T06:52:17;5.20;;;3.10;;
51800;SDS011;37855;53.204;6.568;2024-02-26T06:54:42;5.90;;;3.00;;
51800;SDS011;37855;53.204;6.568;2024-02-26T06:57:08;6.20;;;3.53;;
51800;SDS011;37855;53.204;6.568;2024-02-26T06:59:33;6.07;;;3.57;;
51800;SDS011;37855;53.204;6.568;2024-02-26T07:02:02;6.60;;;3.70;;
51800;SDS011;37855;53.204;6.568;2024-02-26T07:04:28;7.10;;;3.70;;
51800;SDS011;37855;53.204;6.568;2024-02-26T07:06:54;5.00;;;3.40;;
51800;SDS011;37855;53.204;6.568;2024-02-26T07:09:19;5.70;;;3.50;;
51800;SDS011;37855;53.204;6.568;2024-02-26T07:11:45;7.18;;;3.08;;
51800;SDS011;37855;53.204;6.568;2024-02-26T07:14:11;6.67;;;3.50;;
51800;SDS011;37855;53.204;6.568;2024-02-26T07:16:37;6.70;;;3.70;;
51800;SDS011;37855;53.204;6.568;2024-02-26T07:19:03;6.53;;;3.45;;
51800;SDS011;37855;53.204;6.568;2024-02-26T07:21:29;6.53;;;3.20;;
51800;SDS011;37855;53.204;6.568;2024-02-26T07:23:55;6.60;;;3.47;;
51800;SDS011;37855;53.204;6.568;2024-02-26T07:26:21;6.45;;;2.95;;
51800;SDS011;37855;53.204;6.568;2024-02-26T07:28:49;5.47;;;3.20;;
51800;SDS011;37855;53.204;6.568;2024-02-26T07:31:15;5.35;;;2.92;;
51800;SDS011;37855;53.204;6.568;2024-02-26T07:33:42;5.53;;;3.78;;
51800;SDS011;37855;53.204;6.568;2024-02-26T07:36:07;5.07;;;2.43;;
51800;SDS011;37855;53.204;6.568;2024-02-26T07:38:33;5.07;;;2.75;;
51800;SDS011;37855;53.204;6.568;2024-02-26T07:40:59;5.50;;;3.10;;
51800;SDS011;37855;53.204;6.568;2024-02-26T07:43:26;5.38;;;3.00;;
51800;SDS011;37855;53.204;6.568;2024-02-26T07:45:51;8.10;;;2.90;;
51800;SDS011;37855;53.204;6.568;2024-02-26T07:48:17;5.67;;;3.13;;
51800;SDS011;37855;53.204;6.568;2024-02-26T07:50:43;6.93;;;3.28;;
51800;SDS011;37855;53.204;6.568;2024-02-26T07:53:08;4.40;;;2.60;;
51800;SDS011;37855;53.204;6.568;2024-02-26T07:55:34;4.17;;;2.60;;
51800;SDS011;37855;53.204;6.568;2024-02-26T07:57:59;4.75;;;2.88;;
51800;SDS011;37855;53.204;6.568;2024-02-26T08:00:27;4.90;;;2.70;;
51800;SDS011;37855;53.204;6.568;2024-02-26T08:02:55;5.77;;;2.73;;
51800;SDS011;37855;53.204;6.568;2024-02-26T08:05:24;4.60;;;2.67;;
51800;SDS011;37855;53.204;6.568;2024-02-26T08:07:50;6.20;;;3.03;;
51800;SDS011;37855;53.204;6.568;2024-02-26T08:10:16;4.17;;;2.30;;
51800;SDS011;37855;53.204;6.568;2024-02-26T08:12:41;4.47;;;2.70;;
51800;SDS011;37855;53.204;6.568;2024-02-26T08:15:07;5.40;;;2.35;;
51800;SDS011;37855;53.204;6.568;2024-02-26T08:17:33;4.53;;;2.43;;
51800;SDS011;37855;53.204;6.568;2024-02-26T08:19:59;4.70;;;2.33;;
51800;SDS011;37855;53.204;6.568;2024-02-26T08:22:28;6.47;;;2.50;;
51800;SDS011;37855;53.204;6.568;2024-02-26T08:24:53;5.70;;;2.50;;
51800;SDS011;37855;53.204;6.568;2024-02-26T08:27:19;4.40;;;2.47;;
51800;SDS011;37855;53.204;6.568;2024-02-26T08:29:44;5.70;;;2.30;;
51800;SDS011;37855;53.204;6.568;2024-02-26T08:32:10;3.73;;;2.47;;
51800;SDS011;37855;53.204;6.568;2024-02-26T08:34:36;5.25;;;2.33;;
51800;SDS011;37855;53.204;6.568;2024-02-26T08:37:02;6.33;;;2.53;;
51800;SDS011;37855;53.204;6.568;2024-02-26T08:39:27;4.32;;;2.42;;
51800;SDS011;37855;53.204;6.568;2024-02-26T08:41:53;4.40;;;2.07;;
51800;SDS011;37855;53.204;6.568;2024-02-26T08:44:19;3.70;;;2.17;;
51800;SDS011;37855;53.204;6.568;2024-02-26T08:46:44;3.33;;;2.40;;
51800;SDS011;37855;53.204;6.568;2024-02-26T08:49:11;3.63;;;2.20;;
51800;SDS011;37855;53.204;6.568;2024-02-26T08:51:41;4.68;;;2.50;;
51800;SDS011;37855;53.204;6.568;2024-02-26T08:54:10;3.83;;;2.50;;
51800;SDS011;37855;53.204;6.568;2024-02-26T08:56:36;5.00;;;2.45;;
51800;SDS011;37855;53.204;6.568;2024-02-26T08:59:02;3.47;;;2.17;;
51800;SDS011;37855;53.204;6.568;2024-02-26T09:01:29;5.45;;;2.85;;
51800;SDS011;37855;53.204;6.568;2024-02-26T09:03:56;5.10;;;2.67;;
51800;SDS011;37855;53.204;6.568;2024-02-26T09:06:21;4.60;;;2.60;;
51800;SDS011;37855;53.204;6.568;2024-02-26T09:08:47;5.85;;;2.85;;
51800;SDS011;37855;53.204;6.568;2024-02-26T09:11:13;4.03;;;2.63;;
51800;SDS011;37855;53.204;6.568;2024-02-26T09:13:39;4.20;;;2.53;;
51800;SDS011;37855;53.204;6.568;2024-02-26T09:16:05;3.83;;;2.40;;
51800;SDS011;37855;53.204;6.568;2024-02-26T09:18:31;3.65;;;2.40;;
51800;SDS011;37855;53.204;6.568;2024-02-26T09:20:57;5.22;;;2.83;;
51800;SDS011;37855;53.204;6.568;2024-02-26T09:23:22;5.10;;;2.70;;
51800;SDS011;37855;53.204;6.568;2024-02-26T09:25:48;4.20;;;2.60;;
51800;SDS011;37855;53.204;6.568;2024-02-26T09:28:13;4.72;;;2.50;;
51800;SDS011;37855;53.204;6.568;2024-02-26T09:30:42;4.78;;;2.92;;
51800;SDS011;37855;53.204;6.568;2024-02-26T09:33:13;4.33;;;2.10;;
51800;SDS011;37855;53.204;6.568;2024-02-26T09:35:39;4.30;;;2.25;;
51800;SDS011;37855;53.204;6.568;2024-02-26T09:38:05;3.55;;;2.30;;
51800;SDS011;37855;53.204;6.568;2024-02-26T09:40:30;5.53;;;2.67;;
51800;SDS011;37855;53.204;6.568;2024-02-26T09:42:59;4.95;;;2.80;;
51800;SDS011;37855;53.204;6.568;2024-02-26T09:45:25;4.70;;;2.85;;
51800;SDS011;37855;53.204;6.568;2024-02-26T09:47:52;7.27;;;3.23;;
51800;SDS011;37855;53.204;6.568;2024-02-26T09:50:21;5.57;;;2.63;;
51800;SDS011;37855;53.204;6.568;2024-02-26T09:52:47;4.95;;;2.65;;
51800;SDS011;37855;53.204;6.568;2024-02-26T09:55:14;4.55;;;2.47;;
51800;SDS011;37855;53.204;6.568;2024-02-26T09:57:44;5.60;;;3.17;;
51800;SDS011;37855;53.204;6.568;2024-02-26T10:00:15;4.72;;;2.10;;
51800;SDS011;37855;53.204;6.568;2024-02-26T10:02:45;4.68;;;2.50;;
51800;SDS011;37855;53.204;6.568;2024-02-26T10:05:17;5.63;;;2.90;;
51800;SDS011;37855;53.204;6.568;2024-02-26T10:07:46;6.13;;;2.50;;
51800;SDS011;37855;53.204;6.568;2024-02-26T10:10:13;4.13;;;2.63;;
51800;SDS011;37855;53.204;6.568;2024-02-26T10:12:39;5.35;;;2.30;;
51800;SDS011;37855;53.204;6.568;2024-02-26T10:15:14;4.47;;;2.60;;
51800;SDS011;37855;53.204;6.568;2024-02-26T10:17:39;3.50;;;2.47;;
51800;SDS011;37855;53.204;6.568;2024-02-26T10:22:42;4.20;;;2.10;;
51800;SDS011;37855;53.204;6.568;2024-02-26T10:25:09;3.80;;;1.93;;
51800;SDS011;37855;53.204;6.568;2024-02-26T10:27:37;2.45;;;1.73;;
51800;SDS011;37855;53.204;6.568;2024-02-26T10:30:03;4.50;;;2.40;;
51800;SDS011;37855;53.204;6.568;2024-02-26T10:32:51;5.00;;;2.43;;
51800;SDS011;37855;53.204;6.568;2024-02-26T10:35:17;5.93;;;2.35;;
51800;SDS011;37855;53.204;6.568;2024-02-26T10:37:45;5.32;;;2.75;;
51800;SDS011;37855;53.204;6.568;2024-02-26T10:40:12;5.40;;;2.37;;
51800;SDS011;37855;53.204;6.568;2024-02-26T10:42:39;4.25;;;2.58;;
51800;SDS011;37855;53.204;6.568;2024-02-26T10:45:06;4.75;;;2.25;;
51800;SDS011;37855;53.204;6.568;2024-02-26T10:47:32;4.05;;;2.13;;
51800;SDS011;37855;53.204;6.568;2024-02-26T10:49:59;5.90;;;2.40;;
51800;SDS011;37855;53.204;6.568;2024-02-26T10:52:28;5.23;;;2.73;;
51800;SDS011;37855;53.204;6.568;2024-02-26T10:55:06;5.07;;;2.75;;
51800;SDS011;37855;53.204;6.568;2024-02-26T10:57:37;4.90;;;2.90;;
51800;SDS011;37855;53.204;6.568;2024-02-26T11:00:05;3.35;;;2.13;;
51800;SDS011;37855;53.204;6.568;2024-02-26T11:02:33;3.88;;;2.25;;
51800;SDS011;37855;53.204;6.568;2024-02-26T11:05:05;3.77;;;2.30;;
51800;SDS011;37855;53.204;6.568;2024-02-26T11:07:32;5.25;;;2.67;;
51800;SDS011;37855;53.204;6.568;2024-02-26T11:10:00;4.55;;;2.53;;
51800;SDS011;37855;53.204;6.568;2024-02-26T11:12:31;3.10;;;1.88;;
51800;SDS011;37855;53.204;6.568;2024-02-26T11:14:58;3.63;;;2.33;;
51800;SDS011;37855;53.204;6.568;2024-02-26T11:17:29;6.47;;;2.70;;
51800;SDS011;37855;53.204;6.568;2024-02-26T11:19:59;5.53;;;2.38;;
51800;SDS011;37855;53.204;6.568;2024-02-26T11:22:27;4.90;;;2.85;;
51800;SDS011;37855;53.204;6.568;2024-02-26T11:24:53;6.18;;;3.15;;
51800;SDS011;37855;53.204;6.568;2024-02-26T11:27:23;5.00;;;2.90;;
51800;SDS011;37855;53.204;6.568;2024-02-26T11:30:02;4.60;;;2.80;;
51800;SDS011;37855;53.204;6.568;2024-02-26T11:32:30;5.60;;;3.25;;
51800;SDS011;37855;53.204;6.568;2024-02-26T11:35:00;5.85;;;2.97;;
51800;SDS011;37855;53.204;6.568;2024-02-26T11:37:26;5.60;;;2.63;;
51800;SDS011;37855;53.204;6.568;2024-02-26T11:39:52;5.03;;;2.57;;
51800;SDS011;37855;53.204;6.568;2024-02-26T11:42:18;4.82;;;2.70;;
51800;SDS011;37855;53.204;6.568;2024-02-26T11:44:49;5.68;;;3.58;;
51800;SDS011;37855;53.204;6.568;2024-02-26T11:47:19;8.98;;;3.20;;
51800;SDS011;37855;53.204;6.568;2024-02-26T11:49:46;6.80;;;3.40;;
51800;SDS011;37855;53.204;6.568;2024-02-26T11:52:13;5.63;;;2.90;;
51800;SDS011;37855;53.204;6.568;2024-02-26T11:57:19;6.63;;;3.85;;
51800;SDS011;37855;53.204;6.568;2024-02-26T12:00:11;5.85;;;3.10;;
51800;SDS011;37855;53.204;6.568;2024-02-26T12:02:50;5.95;;;3.80;;
51800;SDS011;37855;53.204;6.568;2024-02-26T12:05:24;6.40;;;3.53;;
51800;SDS011;37855;53.204;6.568;2024-02-26T12:08:02;6.88;;;3.67;;
51800;SDS011;37855;53.204;6.568;2024-02-26T12:10:31;7.80;;;3.70;;
51800;SDS011;37855;53.204;6.568;2024-02-26T12:13:14;6.57;;;4.20;;
51800;SDS011;37855;53.204;6.568;2024-02-26T12:15:44;9.95;;;4.13;;
51800;SDS011;37855;53.204;6.568;2024-02-26T12:18:15;5.67;;;3.10;;
51800;SDS011;37855;53.204;6.568;2024-02-26T12:20:42;10.38;;;3.92;;
51800;SDS011;37855;53.204;6.568;2024-02-26T12:23:17;8.10;;;3.97;;
51800;SDS011;37855;53.204;6.568;2024-02-26T12:25:52;5.65;;;3.63;;
51800;SDS011;37855;53.204;6.568;2024-02-26T12:29:10;6.65;;;3.80;;
51800;SDS011;37855;53.204;6.568;2024-02-26T12:34:40;7.40;;;4.47;;
51800;SDS011;37855;53.204;6.568;2024-02-26T12:37:29;6.18;;;3.83;;
51800;SDS011;37855;53.204;6.568;2024-02-26T12:39:55;7.50;;;4.18;;
51800;SDS011;37855;53.204;6.568;2024-02-26T12:42:21;7.77;;;4.33;;
51800;SDS011;37855;53.204;6.568;2024-02-26T12:45:11;6.25;;;3.97;;
51800;SDS011;37855;53.204;6.568;2024-02-26T12:47:50;8.65;;;4.65;;
51800;SDS011;37855;53.204;6.568;2024-02-26T12:53:25;10.17;;;4.13;;
51800;SDS011;37855;53.204;6.568;2024-02-26T12:55:53;7.32;;;4.22;;
51800;SDS011;37855;53.204;6.568;2024-02-26T12:58:20;9.18;;;5.55;;
51800;SDS011;37855;53.204;6.568;2024-02-26T13:00:50;8.18;;;5.10;;
51800;SDS011;37855;53.204;6.568;2024-02-26T13:03:16;7.45;;;4.50;;
51800;SDS011;37855;53.204;6.568;2024-02-26T13:05:42;10.73;;;4.73;;
51800;SDS011;37855;53.204;6.568;2024-02-26T13:08:08;8.38;;;4.70;;
51800;SDS011;37855;53.204;6.568;2024-02-26T13:10:34;8.80;;;4.85;;
51800;SDS011;37855;53.204;6.568;2024-02-26T13:13:01;11.87;;;4.93;;
51800;SDS011;37855;53.204;6.568;2024-02-26T13:15:27;7.07;;;4.40;;
51800;SDS011;37855;53.204;6.568;2024-02-26T13:17:53;9.02;;;4.88;;
51800;SDS011;37855;53.204;6.568;2024-02-26T13:20:30;6.40;;;3.67;;
51800;SDS011;37855;53.204;6.568;2024-02-26T13:23:05;8.45;;;4.63;;
51800;SDS011;37855;53.204;6.568;2024-02-26T13:25:40;7.15;;;4.53;;
51800;SDS011;37855;53.204;6.568;2024-02-26T13:28:14;8.15;;;5.07;;
51800;SDS011;37855;53.204;6.568;2024-02-26T13:30:41;9.13;;;4.90;;
51800;SDS011;37855;53.204;6.568;2024-02-26T13:33:15;9.20;;;4.40;;
51800;SDS011;37855;53.204;6.568;2024-02-26T13:35:41;7.60;;;4.25;;
51800;SDS011;37855;53.204;6.568;2024-02-26T13:38:06;8.93;;;4.73;;
51800;SDS011;37855;53.204;6.568;2024-02-26T13:40:35;9.20;;;4.13;;
51800;SDS011;37855;53.204;6.568;2024-02-26T13:43:01;8.53;;;4.40;;
51800;SDS011;37855;53.204;6.568;2024-02-26T13:45:27;10.80;;;4.63;;
51800;SDS011;37855;53.204;6.568;2024-02-26T13:47:52;8.43;;;3.93;;
51800;SDS011;37855;53.204;6.568;2024-02-26T13:50:18;9.20;;;5.20;;
51800;SDS011;37855;53.204;6.568;2024-02-26T13:52:46;10.52;;;4.85;;
51800;SDS011;37855;53.204;6.568;2024-02-26T13:55:18;8.20;;;5.17;;
51800;SDS011;37855;53.204;6.568;2024-02-26T13:57:44;7.82;;;4.82;;
51800;SDS011;37855;53.204;6.568;2024-02-26T14:00:10;8.18;;;4.75;;
51800;SDS011;37855;53.204;6.568;2024-02-26T14:02:36;11.25;;;4.35;;
51800;SDS011;37855;53.204;6.568;2024-02-26T14:05:02;8.23;;;5.30;;
51800;SDS011;37855;53.204;6.568;2024-02-26T14:07:30;8.75;;;5.53;;
51800;SDS011;37855;53.204;6.568;2024-02-26T14:09:59;12.57;;;5.40;;
51800;SDS011;37855;53.204;6.568;2024-02-26T14:12:24;11.27;;;5.40;;
51800;SDS011;37855;53.204;6.568;2024-02-26T14:14:50;7.40;;;3.72;;
51800;SDS011;37855;53.204;6.568;2024-02-26T14:17:18;9.13;;;5.10;;
51800;SDS011;37855;53.204;6.568;2024-02-26T14:19:43;9.98;;;5.18;;
51800;SDS011;37855;53.204;6.568;2024-02-26T14:22:12;10.75;;;5.70;;
51800;SDS011;37855;53.204;6.568;2024-02-26T14:24:39;12.17;;;6.20;;
51800;SDS011;37855;53.204;6.568;2024-02-26T14:27:06;7.60;;;4.13;;
51800;SDS011;37855;53.204;6.568;2024-02-26T14:29:33;9.25;;;5.35;;
51800;SDS011;37855;53.204;6.568;2024-02-26T14:32:08;7.33;;;4.90;;
51800;SDS011;37855;53.204;6.568;2024-02-26T14:34:34;7.60;;;4.07;;
51800;SDS011;37855;53.204;6.568;2024-02-26T14:37:00;8.90;;;5.35;;
51800;SDS011;37855;53.204;6.568;2024-02-26T14:39:28;8.97;;;5.27;;
51800;SDS011;37855;53.204;6.568;2024-02-26T14:41:54;8.90;;;5.60;;
51800;SDS011;37855;53.204;6.568;2024-02-26T14:44:20;9.13;;;4.68;;
51800;SDS011;37855;53.204;6.568;2024-02-26T14:46:46;10.80;;;4.93;;
51800;SDS011;37855;53.204;6.568;2024-02-26T14:49:12;8.43;;;4.60;;
51800;SDS011;37855;53.204;6.568;2024-02-26T14:51:37;10.17;;;4.60;;
51800;SDS011;37855;53.204;6.568;2024-02-26T14:54:03;7.47;;;4.53;;
51800;SDS011;37855;53.204;6.568;2024-02-26T14:56:29;8.93;;;4.20;;